sensor_id;sensor_type;location;lat;lon;timestamp;temperature;humidity
14682;DHT22;7429;52.498;13.480;2023-02-16T00:00:59;1.40;99.90
14682;DHT22;7429;52.498;13.480;2023-02-16T00:04:13;1.30;99.90
14682;DHT22;7429;52.498;13.480;2023-02-16T00:07:19;1.30;99.90
14682;DHT22;7429;52.498;13.480;2023-02-16T00:10:22;1.30;99.90
14682;DHT22;7429;52.498;13.480;2023-02-16T00:13:27;1.30;99.90
14682;DHT22;7429;52.498;13.480;2023-02-16T00:16:45;1.30;99.90
14682;DHT22;7429;52.498;13.480;2023-02-16T00:19:48;1.20;99.90
14682;DHT22;7429;52.498;13.480;2023-02-16T00:22:53;1.20;99.90
14682;DHT22;7429;52.498;13.480;2023-02-16T00:25:56;1.20;99.90
14682;DHT22;7429;52.498;13.480;2023-02-16T00:29:00;1.20;99.90
14682;DHT22;7429;52.498;13.480;2023-02-16T00:32:05;1.10;99.90
14682;DHT22;7429;52.498;13.480;2023-02-16T00:35:13;1.10;99.90
14682;DHT22;7429;52.498;13.480;2023-02-16T00:38:18;1.20;99.90
14682;DHT22;7429;52.498;13.480;2023-02-16T00:41:22;1.20;99.90
14682;DHT22;7429;52.498;13.480;2023-02-16T00:44:48;1.10;99.90
14682;DHT22;7429;52.498;13.480;2023-02-16T00:47:53;1.10;99.90
14682;DHT22;7429;52.498;13.480;2023-02-16T00:50:57;1.10;99.90
14682;DHT22;7429;52.498;13.480;2023-02-16T00:54:02;1.10;99.90
14682;DHT22;7429;52.498;13.480;2023-02-16T00:57:08;1.10;99.90
14682;DHT22;7429;52.498;13.480;2023-02-16T01:00:19;1.10;99.90
14682;DHT22;7429;52.498;13.480;2023-02-16T01:03:29;1.10;99.90
14682;DHT22;7429;52.498;13.480;2023-02-16T01:06:32;1.00;99.90
14682;DHT22;7429;52.498;13.480;2023-02-16T01:09:55;1.10;99.90
14682;DHT22;7429;52.498;13.480;2023-02-16T01:13:18;1.10;99.90
14682;DHT22;7429;52.498;13.480;2023-02-16T01:16:23;1.10;99.90
14682;DHT22;7429;52.498;13.480;2023-02-16T01:19:28;1.10;99.90
14682;DHT22;7429;52.498;13.480;2023-02-16T01:22:31;1.00;99.90
14682;DHT22;7429;52.498;13.480;2023-02-16T01:25:37;1.10;99.90
14682;DHT22;7429;52.498;13.480;2023-02-16T01:28:41;1.00;99.90
14682;DHT22;7429;52.498;13.480;2023-02-16T01:31:44;1.00;99.90
14682;DHT22;7429;52.498;13.480;2023-02-16T01:34:48;1.00;99.90
14682;DHT22;7429;52.498;13.480;2023-02-16T01:37:51;1.00;99.90
14682;DHT22;7429;52.498;13.480;2023-02-16T01:41:03;1.00;99.90
14682;DHT22;7429;52.498;13.480;2023-02-16T01:44:13;1.00;99.90
14682;DHT22;7429;52.498;13.480;2023-02-16T01:47:31;0.90;99.90
14682;DHT22;7429;52.498;13.480;2023-02-16T01:50:43;0.90;99.90
14682;DHT22;7429;52.498;13.480;2023-02-16T01:53:52;0.90;99.90
14682;DHT22;7429;52.498;13.480;2023-02-16T01:57:03;0.80;99.90
14682;DHT22;7429;52.498;13.480;2023-02-16T02:00:18;0.90;99.90
14682;DHT22;7429;52.498;13.480;2023-02-16T02:03:27;0.90;99.90
14682;DHT22;7429;52.498;13.480;2023-02-16T02:06:49;0.90;99.90
14682;DHT22;7429;52.498;13.480;2023-02-16T02:10:01;0.80;99.90
14682;DHT22;7429;52.498;13.480;2023-02-16T02:13:14;0.90;99.90
14682;DHT22;7429;52.498;13.480;2023-02-16T02:16:20;0.80;99.90
14682;DHT22;7429;52.498;13.480;2023-02-16T02:19:25;0.80;99.90
14682;DHT22;7429;52.498;13.480;2023-02-16T02:26:57;0.70;99.90
14682;DHT22;7429;52.498;13.480;2023-02-16T02:30:23;0.80;99.90
14682;DHT22;7429;52.498;13.480;2023-02-16T02:33:43;0.80;99.90
14682;DHT22;7429;52.498;13.480;2023-02-16T02:36:59;0.70;99.90
14682;DHT22;7429;52.498;13.480;2023-02-16T02:40:10;0.80;99.90
14682;DHT22;7429;52.498;13.480;2023-02-16T02:43:23;0.70;99.90
14682;DHT22;7429;52.498;13.480;2023-02-16T02:46:32;0.70;99.90
14682;DHT22;7429;52.498;13.480;2023-02-16T02:49:38;0.70;99.90
14682;DHT22;7429;52.498;13.480;2023-02-16T02:52:44;0.70;99.90
14682;DHT22;7429;52.498;13.480;2023-02-16T02:55:49;0.70;99.90
14682;DHT22;7429;52.498;13.480;2023-02-16T02:59:12;0.70;99.90
14682;DHT22;7429;52.498;13.480;2023-02-16T03:02:33;0.70;99.90
14682;DHT22;7429;52.498;13.480;2023-02-16T03:05:42;0.70;99.90
14682;DHT22;7429;52.498;13.480;2023-02-16T03:08:50;0.60;99.90
14682;DHT22;7429;52.498;13.480;2023-02-16T03:11:57;0.60;99.90
14682;DHT22;7429;52.498;13.480;2023-02-16T03:15:21;0.60;99.90
14682;DHT22;7429;52.498;13.480;2023-02-16T03:18:26;0.60;99.90
14682;DHT22;7429;52.498;13.480;2023-02-16T03:21:48;0.50;99.90
14682;DHT22;7429;52.498;13.480;2023-02-16T03:25:09;0.60;99.90
14682;DHT22;7429;52.498;13.480;2023-02-16T03:28:32;0.50;99.90
14682;DHT22;7429;52.498;13.480;2023-02-16T03:31:56;0.50;99.90
14682;DHT22;7429;52.498;13.480;2023-02-16T03:34:59;0.50;99.90
14682;DHT22;7429;52.498;13.480;2023-02-16T03:38:03;0.50;99.90
14682;DHT22;7429;52.498;13.480;2023-02-16T03:41:07;0.40;99.90
14682;DHT22;7429;52.498;13.480;2023-02-16T03:44:13;0.40;99.90
14682;DHT22;7429;52.498;13.480;2023-02-16T03:47:18;0.40;99.90
14682;DHT22;7429;52.498;13.480;2023-02-16T03:50:21;0.40;99.90
14682;DHT22;7429;52.498;13.480;2023-02-16T03:53:27;0.40;99.90
14682;DHT22;7429;52.498;13.480;2023-02-16T03:56:30;0.40;99.90
14682;DHT22;7429;52.498;13.480;2023-02-16T03:59:33;0.40;99.90
14682;DHT22;7429;52.498;13.480;2023-02-16T04:02:38;0.30;99.90
14682;DHT22;7429;52.498;13.480;2023-02-16T04:05:41;0.40;99.90
14682;DHT22;7429;52.498;13.480;2023-02-16T04:08:45;0.40;99.90
14682;DHT22;7429;52.498;13.480;2023-02-16T04:11:48;0.50;99.90
14682;DHT22;7429;52.498;13.480;2023-02-16T04:15:11;0.50;99.90
14682;DHT22;7429;52.498;13.480;2023-02-16T04:18:17;0.40;99.90
14682;DHT22;7429;52.498;13.480;2023-02-16T04:21:20;0.40;99.90
14682;DHT22;7429;52.498;13.480;2023-02-16T04:24:23;0.50;99.90
14682;DHT22;7429;52.498;13.480;2023-02-16T04:27:26;0.40;99.90
14682;DHT22;7429;52.498;13.480;2023-02-16T04:30:30;0.40;99.90
14682;DHT22;7429;52.498;13.480;2023-02-16T04:33:35;0.40;99.90
14682;DHT22;7429;52.498;13.480;2023-02-16T04:36:41;0.40;99.90
14682;DHT22;7429;52.498;13.480;2023-02-16T04:39:48;0.50;99.90
14682;DHT22;7429;52.498;13.480;2023-02-16T04:42:54;0.40;99.90
14682;DHT22;7429;52.498;13.480;2023-02-16T04:45:57;0.40;99.90
14682;DHT22;7429;52.498;13.480;2023-02-16T04:49:04;0.30;99.90
14682;DHT22;7429;52.498;13.480;2023-02-16T04:52:07;0.30;99.90
14682;DHT22;7429;52.498;13.480;2023-02-16T04:55:10;0.30;99.90
14682;DHT22;7429;52.498;13.480;2023-02-16T04:58:14;0.40;99.90
14682;DHT22;7429;52.498;13.480;2023-02-16T05:01:18;0.30;99.90
14682;DHT22;7429;52.498;13.480;2023-02-16T05:04:24;0.30;99.90
14682;DHT22;7429;52.498;13.480;2023-02-16T05:07:27;0.20;99.90
14682;DHT22;7429;52.498;13.480;2023-02-16T05:10:30;0.20;99.90
14682;DHT22;7429;52.498;13.480;2023-02-16T05:13:36;0.20;99.90
14682;DHT22;7429;52.498;13.480;2023-02-16T05:16:57;0.20;99.90
14682;DHT22;7429;52.498;13.480;2023-02-16T05:20:01;0.20;99.90
14682;DHT22;7429;52.498;13.480;2023-02-16T05:23:05;0.20;99.90
14682;DHT22;7429;52.498;13.480;2023-02-16T05:26:08;0.20;99.90
14682;DHT22;7429;52.498;13.480;2023-02-16T05:29:14;0.20;99.90
14682;DHT22;7429;52.498;13.480;2023-02-16T05:32:18;0.20;99.90
14682;DHT22;7429;52.498;13.480;2023-02-16T05:35:23;0.20;99.90
14682;DHT22;7429;52.498;13.480;2023-02-16T05:38:31;0.20;99.90
14682;DHT22;7429;52.498;13.480;2023-02-16T05:41:34;0.10;99.90
14682;DHT22;7429;52.498;13.480;2023-02-16T05:44:37;0.10;99.90
14682;DHT22;7429;52.498;13.480;2023-02-16T05:47:40;0.10;99.90
14682;DHT22;7429;52.498;13.480;2023-02-16T05:50:47;0.10;99.90
14682;DHT22;7429;52.498;13.480;2023-02-16T05:53:50;0.10;99.90
14682;DHT22;7429;52.498;13.480;2023-02-16T05:56:53;0.00;99.90
14682;DHT22;7429;52.498;13.480;2023-02-16T05:59:57;0.00;99.90
14682;DHT22;7429;52.498;13.480;2023-02-16T06:03:00;0.00;99.90
14682;DHT22;7429;52.498;13.480;2023-02-16T06:06:05;0.10;99.90
14682;DHT22;7429;52.498;13.480;2023-02-16T06:09:10;0.10;99.90
14682;DHT22;7429;52.498;13.480;2023-02-16T06:12:13;0.10;99.90
14682;DHT22;7429;52.498;13.480;2023-02-16T06:15:17;0.00;99.90
14682;DHT22;7429;52.498;13.480;2023-02-16T06:18:20;0.00;99.90
14682;DHT22;7429;52.498;13.480;2023-02-16T06:21:25;0.00;99.90
14682;DHT22;7429;52.498;13.480;2023-02-16T06:24:29;-0.10;99.90
14682;DHT22;7429;52.498;13.480;2023-02-16T06:27:32;-0.10;99.90
14682;DHT22;7429;52.498;13.480;2023-02-16T06:30:35;-0.10;99.90
14682;DHT22;7429;52.498;13.480;2023-02-16T06:33:38;-0.10;99.90
14682;DHT22;7429;52.498;13.480;2023-02-16T06:36:43;-0.10;99.90
14682;DHT22;7429;52.498;13.480;2023-02-16T06:39:46;-0.10;99.90
14682;DHT22;7429;52.498;13.480;2023-02-16T06:42:49;-0.10;99.90
14682;DHT22;7429;52.498;13.480;2023-02-16T06:45:52;0.00;99.90
14682;DHT22;7429;52.498;13.480;2023-02-16T06:48:55;-0.10;99.90
14682;DHT22;7429;52.498;13.480;2023-02-16T06:52:18;-0.10;99.90
14682;DHT22;7429;52.498;13.480;2023-02-16T06:55:21;0.00;99.90
14682;DHT22;7429;52.498;13.480;2023-02-16T06:58:25;0.00;99.90
14682;DHT22;7429;52.498;13.480;2023-02-16T07:01:28;0.00;99.90
14682;DHT22;7429;52.498;13.480;2023-02-16T07:04:32;0.00;99.90
14682;DHT22;7429;52.498;13.480;2023-02-16T07:07:55;0.00;99.90
14682;DHT22;7429;52.498;13.480;2023-02-16T07:10:58;0.10;99.90
14682;DHT22;7429;52.498;13.480;2023-02-16T07:14:01;0.10;99.90
14682;DHT22;7429;52.498;13.480;2023-02-16T07:17:04;0.20;99.90
14682;DHT22;7429;52.498;13.480;2023-02-16T07:20:25;0.30;99.90
14682;DHT22;7429;52.498;13.480;2023-02-16T07:23:32;0.30;99.90
14682;DHT22;7429;52.498;13.480;2023-02-16T07:26:35;0.40;99.90
14682;DHT22;7429;52.498;13.480;2023-02-16T07:29:40;0.40;99.90
14682;DHT22;7429;52.498;13.480;2023-02-16T07:32:45;0.50;99.90
14682;DHT22;7429;52.498;13.480;2023-02-16T07:35:48;0.50;99.90
14682;DHT22;7429;52.498;13.480;2023-02-16T07:38:54;0.50;99.90
14682;DHT22;7429;52.498;13.480;2023-02-16T07:41:57;0.60;99.90
14682;DHT22;7429;52.498;13.480;2023-02-16T07:45:18;0.60;99.90
14682;DHT22;7429;52.498;13.480;2023-02-16T07:48:21;0.70;99.90
14682;DHT22;7429;52.498;13.480;2023-02-16T07:51:43;0.70;99.90
14682;DHT22;7429;52.498;13.480;2023-02-16T07:54:47;0.80;99.90
14682;DHT22;7429;52.498;13.480;2023-02-16T07:57:51;0.80;99.90
14682;DHT22;7429;52.498;13.480;2023-02-16T08:01:05;0.90;99.90
14682;DHT22;7429;52.498;13.480;2023-02-16T08:04:29;1.00;99.90
14682;DHT22;7429;52.498;13.480;2023-02-16T08:07:32;1.10;99.90
14682;DHT22;7429;52.498;13.480;2023-02-16T08:10:55;1.20;99.90
14682;DHT22;7429;52.498;13.480;2023-02-16T08:14:16;1.30;99.90
14682;DHT22;7429;52.498;13.480;2023-02-16T08:17:20;1.50;99.90
14682;DHT22;7429;52.498;13.480;2023-02-16T08:20:42;1.60;99.90
14682;DHT22;7429;52.498;13.480;2023-02-16T08:24:06;1.70;99.90
14682;DHT22;7429;52.498;13.480;2023-02-16T08:27:30;1.70;99.90
14682;DHT22;7429;52.498;13.480;2023-02-16T08:30:33;1.90;99.90
14682;DHT22;7429;52.498;13.480;2023-02-16T08:33:37;2.00;99.90
14682;DHT22;7429;52.498;13.480;2023-02-16T08:36:42;2.00;99.90
14682;DHT22;7429;52.498;13.480;2023-02-16T08:39:47;2.10;99.90
14682;DHT22;7429;52.498;13.480;2023-02-16T08:42:52;2.10;99.90
14682;DHT22;7429;52.498;13.480;2023-02-16T08:46:15;2.30;99.90
14682;DHT22;7429;52.498;13.480;2023-02-16T08:49:21;2.50;99.90
14682;DHT22;7429;52.498;13.480;2023-02-16T08:52:24;2.70;99.90
14682;DHT22;7429;52.498;13.480;2023-02-16T08:55:27;2.80;99.90
14682;DHT22;7429;52.498;13.480;2023-02-16T08:58:32;3.00;99.90
14682;DHT22;7429;52.498;13.480;2023-02-16T09:01:36;3.10;99.90
14682;DHT22;7429;52.498;13.480;2023-02-16T09:04:39;3.30;99.90
14682;DHT22;7429;52.498;13.480;2023-02-16T09:07:42;3.40;99.90
14682;DHT22;7429;52.498;13.480;2023-02-16T09:10:45;3.60;99.90
14682;DHT22;7429;52.498;13.480;2023-02-16T09:13:50;3.80;99.90
14682;DHT22;7429;52.498;13.480;2023-02-16T09:16:55;3.90;99.90
14682;DHT22;7429;52.498;13.480;2023-02-16T09:20:17;3.90;99.90
14682;DHT22;7429;52.498;13.480;2023-02-16T09:23:22;4.10;99.90
14682;DHT22;7429;52.498;13.480;2023-02-16T09:26:43;4.20;99.90
14682;DHT22;7429;52.498;13.480;2023-02-16T09:29:48;4.40;99.90
14682;DHT22;7429;52.498;13.480;2023-02-16T09:32:52;4.60;99.90
14682;DHT22;7429;52.498;13.480;2023-02-16T09:35:56;4.70;99.90
14682;DHT22;7429;52.498;13.480;2023-02-16T09:38:59;4.90;99.90
14682;DHT22;7429;52.498;13.480;2023-02-16T09:42:10;5.10;99.90
14682;DHT22;7429;52.498;13.480;2023-02-16T09:45:24;5.30;99.90
14682;DHT22;7429;52.498;13.480;2023-02-16T09:48:34;5.60;99.90
14682;DHT22;7429;52.498;13.480;2023-02-16T09:51:39;5.80;99.90
14682;DHT22;7429;52.498;13.480;2023-02-16T09:54:46;6.00;99.90
14682;DHT22;7429;52.498;13.480;2023-02-16T09:57:59;6.20;99.90
14682;DHT22;7429;52.498;13.480;2023-02-16T10:01:18;6.40;99.90
14682;DHT22;7429;52.498;13.480;2023-02-16T10:04:51;6.50;99.90
14682;DHT22;7429;52.498;13.480;2023-02-16T10:08:04;6.60;99.90
14682;DHT22;7429;52.498;13.480;2023-02-16T10:11:13;6.90;99.90
14682;DHT22;7429;52.498;13.480;2023-02-16T10:14:40;7.00;99.90
14682;DHT22;7429;52.498;13.480;2023-02-16T10:17:49;7.20;99.90
14682;DHT22;7429;52.498;13.480;2023-02-16T10:20:58;7.30;99.90
14682;DHT22;7429;52.498;13.480;2023-02-16T10:24:05;7.50;99.90
14682;DHT22;7429;52.498;13.480;2023-02-16T10:27:13;7.50;99.90
14682;DHT22;7429;52.498;13.480;2023-02-16T10:30:19;7.70;99.90
14682;DHT22;7429;52.498;13.480;2023-02-16T10:33:36;7.90;99.90
14682;DHT22;7429;52.498;13.480;2023-02-16T10:37:03;8.00;99.90
14682;DHT22;7429;52.498;13.480;2023-02-16T10:40:21;8.10;99.90
14682;DHT22;7429;52.498;13.480;2023-02-16T10:43:39;8.40;99.90
14682;DHT22;7429;52.498;13.480;2023-02-16T10:46:52;8.50;99.90
14682;DHT22;7429;52.498;13.480;2023-02-16T10:49:59;8.60;99.90
14682;DHT22;7429;52.498;13.480;2023-02-16T10:53:08;8.70;99.90
14682;DHT22;7429;52.498;13.480;2023-02-16T10:56:47;8.80;99.90
14682;DHT22;7429;52.498;13.480;2023-02-16T10:59:56;9.00;99.90
14682;DHT22;7429;52.498;13.480;2023-02-16T11:03:23;9.20;99.90
14682;DHT22;7429;52.498;13.480;2023-02-16T11:07:00;9.40;99.90
14682;DHT22;7429;52.498;13.480;2023-02-16T11:10:19;9.50;99.90
14682;DHT22;7429;52.498;13.480;2023-02-16T11:13:27;9.50;99.90
14682;DHT22;7429;52.498;13.480;2023-02-16T11:16:32;9.60;99.90
14682;DHT22;7429;52.498;13.480;2023-02-16T11:19:37;9.60;99.90
14682;DHT22;7429;52.498;13.480;2023-02-16T11:22:43;9.70;99.90
14682;DHT22;7429;52.498;13.480;2023-02-16T11:26:00;9.80;99.90
14682;DHT22;7429;52.498;13.480;2023-02-16T11:29:18;10.00;99.90
14682;DHT22;7429;52.498;13.480;2023-02-16T11:32:40;9.90;99.90
14682;DHT22;7429;52.498;13.480;2023-02-16T11:35:44;9.90;99.90
14682;DHT22;7429;52.498;13.480;2023-02-16T11:39:00;10.00;99.90
14682;DHT22;7429;52.498;13.480;2023-02-16T11:42:08;10.00;99.90
14682;DHT22;7429;52.498;13.480;2023-02-16T11:45:24;10.10;99.90
14682;DHT22;7429;52.498;13.480;2023-02-16T11:48:32;10.20;99.90
14682;DHT22;7429;52.498;13.480;2023-02-16T11:51:37;10.40;99.90
14682;DHT22;7429;52.498;13.480;2023-02-16T11:54:47;10.50;99.90
14682;DHT22;7429;52.498;13.480;2023-02-16T11:57:51;10.50;99.90
14682;DHT22;7429;52.498;13.480;2023-02-16T12:01:02;10.80;99.90
14682;DHT22;7429;52.498;13.480;2023-02-16T12:04:20;10.90;99.90
14682;DHT22;7429;52.498;13.480;2023-02-16T12:07:36;10.90;99.90
14682;DHT22;7429;52.498;13.480;2023-02-16T12:11:04;11.10;99.90
14682;DHT22;7429;52.498;13.480;2023-02-16T12:14:21;11.20;99.90
14682;DHT22;7429;52.498;13.480;2023-02-16T12:17:42;11.30;99.90
14682;DHT22;7429;52.498;13.480;2023-02-16T12:20:54;11.40;99.90
14682;DHT22;7429;52.498;13.480;2023-02-16T12:24:07;11.50;99.90
14682;DHT22;7429;52.498;13.480;2023-02-16T12:27:20;11.50;99.90
14682;DHT22;7429;52.498;13.480;2023-02-16T12:30:34;11.70;99.90
14682;DHT22;7429;52.498;13.480;2023-02-16T12:33:47;11.90;99.90
14682;DHT22;7429;52.498;13.480;2023-02-16T12:36:58;11.80;99.90
14682;DHT22;7429;52.498;13.480;2023-02-16T12:40:13;11.90;99.90
14682;DHT22;7429;52.498;13.480;2023-02-16T12:43:31;11.90;99.90
14682;DHT22;7429;52.498;13.480;2023-02-16T12:46:40;12.10;99.90
14682;DHT22;7429;52.498;13.480;2023-02-16T12:49:50;12.20;99.90
14682;DHT22;7429;52.498;13.480;2023-02-16T12:52:58;12.20;99.90
14682;DHT22;7429;52.498;13.480;2023-02-16T12:56:08;12.20;99.90
14682;DHT22;7429;52.498;13.480;2023-02-16T12:59:22;12.30;99.90
14682;DHT22;7429;52.498;13.480;2023-02-16T13:02:31;12.10;99.90
14682;DHT22;7429;52.498;13.480;2023-02-16T13:05:37;12.10;99.90
14682;DHT22;7429;52.498;13.480;2023-02-16T13:08:47;12.10;99.90
14682;DHT22;7429;52.498;13.480;2023-02-16T13:11:58;12.00;99.90
14682;DHT22;7429;52.498;13.480;2023-02-16T13:15:11;12.10;99.90
14682;DHT22;7429;52.498;13.480;2023-02-16T13:18:20;12.30;99.90
14682;DHT22;7429;52.498;13.480;2023-02-16T13:25:25;12.60;99.90
14682;DHT22;7429;52.498;13.480;2023-02-16T13:28:50;12.70;99.90
14682;DHT22;7429;52.498;13.480;2023-02-16T13:32:21;12.70;99.90
14682;DHT22;7429;52.498;13.480;2023-02-16T13:39:41;12.60;99.90
14682;DHT22;7429;52.498;13.480;2023-02-16T13:43:00;12.70;99.90
14682;DHT22;7429;52.498;13.480;2023-02-16T13:46:13;12.70;99.90
14682;DHT22;7429;52.498;13.480;2023-02-16T13:49:33;12.90;99.90
14682;DHT22;7429;52.498;13.480;2023-02-16T13:52:41;12.90;99.90
14682;DHT22;7429;52.498;13.480;2023-02-16T13:55:45;13.00;99.90
14682;DHT22;7429;52.498;13.480;2023-02-16T13:58:51;13.10;99.90
14682;DHT22;7429;52.498;13.480;2023-02-16T14:01:55;13.10;99.90
14682;DHT22;7429;52.498;13.480;2023-02-16T14:05:03;13.10;99.90
14682;DHT22;7429;52.498;13.480;2023-02-16T14:11:25;13.10;99.90
14682;DHT22;7429;52.498;13.480;2023-02-16T14:14:29;12.90;99.90
14682;DHT22;7429;52.498;13.480;2023-02-16T14:17:34;12.70;99.90
14682;DHT22;7429;52.498;13.480;2023-02-16T14:20:39;12.60;99.90
14682;DHT22;7429;52.498;13.480;2023-02-16T14:23:53;12.60;99.90
14682;DHT22;7429;52.498;13.480;2023-02-16T14:26:58;12.50;99.90
14682;DHT22;7429;52.498;13.480;2023-02-16T14:30:04;12.50;99.90
14682;DHT22;7429;52.498;13.480;2023-02-16T14:33:19;12.50;99.90
14682;DHT22;7429;52.498;13.480;2023-02-16T14:36:27;12.50;99.90
14682;DHT22;7429;52.498;13.480;2023-02-16T14:39:31;12.40;99.90
14682;DHT22;7429;52.498;13.480;2023-02-16T14:42:45;12.50;99.90
14682;DHT22;7429;52.498;13.480;2023-02-16T14:50:03;12.40;99.90
14682;DHT22;7429;52.498;13.480;2023-02-16T14:53:56;12.30;99.90
14682;DHT22;7429;52.498;13.480;2023-02-16T14:57:11;12.30;99.90
14682;DHT22;7429;52.498;13.480;2023-02-16T15:00:22;12.30;99.90
14682;DHT22;7429;52.498;13.480;2023-02-16T15:03:40;12.30;99.90
14682;DHT22;7429;52.498;13.480;2023-02-16T15:06:48;12.30;99.90
14682;DHT22;7429;52.498;13.480;2023-02-16T15:09:55;12.30;99.90
14682;DHT22;7429;52.498;13.480;2023-02-16T15:13:17;12.30;99.90
14682;DHT22;7429;52.498;13.480;2023-02-16T15:16:23;12.30;99.90
14682;DHT22;7429;52.498;13.480;2023-02-16T15:19:28;12.20;99.90
14682;DHT22;7429;52.498;13.480;2023-02-16T15:22:33;12.10;99.90
14682;DHT22;7429;52.498;13.480;2023-02-16T15:25:41;12.20;99.90
14682;DHT22;7429;52.498;13.480;2023-02-16T15:28:51;12.20;99.90
14682;DHT22;7429;52.498;13.480;2023-02-16T15:31:57;12.20;99.90
14682;DHT22;7429;52.498;13.480;2023-02-16T15:35:10;12.10;99.90
14682;DHT22;7429;52.498;13.480;2023-02-16T15:38:20;12.10;99.90
14682;DHT22;7429;52.498;13.480;2023-02-16T15:41:28;12.00;99.90
14682;DHT22;7429;52.498;13.480;2023-02-16T15:44:34;12.00;99.90
14682;DHT22;7429;52.498;13.480;2023-02-16T15:47:40;12.00;99.90
14682;DHT22;7429;52.498;13.480;2023-02-16T15:50:47;11.90;99.90
14682;DHT22;7429;52.498;13.480;2023-02-16T15:53:52;11.80;99.90
14682;DHT22;7429;52.498;13.480;2023-02-16T15:57:01;11.80;99.90
14682;DHT22;7429;52.498;13.480;2023-02-16T16:00:13;11.80;99.90
14682;DHT22;7429;52.498;13.480;2023-02-16T16:03:21;11.70;99.90
14682;DHT22;7429;52.498;13.480;2023-02-16T16:06:31;11.70;99.90
14682;DHT22;7429;52.498;13.480;2023-02-16T16:09:37;11.60;99.90
14682;DHT22;7429;52.498;13.480;2023-02-16T16:12:43;11.50;99.90
14682;DHT22;7429;52.498;13.480;2023-02-16T16:15:48;11.40;99.90
14682;DHT22;7429;52.498;13.480;2023-02-16T16:18:53;11.30;99.90
14682;DHT22;7429;52.498;13.480;2023-02-16T16:21:56;11.30;99.90
14682;DHT22;7429;52.498;13.480;2023-02-16T16:25:00;11.20;99.90
14682;DHT22;7429;52.498;13.480;2023-02-16T16:28:09;11.20;99.90
14682;DHT22;7429;52.498;13.480;2023-02-16T16:31:15;11.00;99.90
14682;DHT22;7429;52.498;13.480;2023-02-16T16:34:32;10.70;99.90
14682;DHT22;7429;52.498;13.480;2023-02-16T16:37:36;10.70;99.90
14682;DHT22;7429;52.498;13.480;2023-02-16T16:40:39;10.70;99.90
14682;DHT22;7429;52.498;13.480;2023-02-16T16:43:53;10.70;99.90
14682;DHT22;7429;52.498;13.480;2023-02-16T16:47:11;10.60;99.90
14682;DHT22;7429;52.498;13.480;2023-02-16T16:50:30;10.60;99.90
14682;DHT22;7429;52.498;13.480;2023-02-16T16:53:41;10.60;99.90
14682;DHT22;7429;52.498;13.480;2023-02-16T16:56:53;10.60;99.90
14682;DHT22;7429;52.498;13.480;2023-02-16T16:59:57;10.60;99.90
14682;DHT22;7429;52.498;13.480;2023-02-16T17:03:04;10.50;99.90
14682;DHT22;7429;52.498;13.480;2023-02-16T17:06:09;10.40;99.90
14682;DHT22;7429;52.498;13.480;2023-02-16T17:09:12;10.30;99.90
14682;DHT22;7429;52.498;13.480;2023-02-16T17:12:18;10.20;99.90
14682;DHT22;7429;52.498;13.480;2023-02-16T17:15:42;10.10;99.90
14682;DHT22;7429;52.498;13.480;2023-02-16T17:19:02;9.90;99.90
14682;DHT22;7429;52.498;13.480;2023-02-16T17:22:10;9.80;99.90
14682;DHT22;7429;52.498;13.480;2023-02-16T17:25:14;9.70;99.90
14682;DHT22;7429;52.498;13.480;2023-02-16T17:28:18;9.50;99.90
14682;DHT22;7429;52.498;13.480;2023-02-16T17:31:51;9.50;99.90
14682;DHT22;7429;52.498;13.480;2023-02-16T17:34:54;9.50;99.90
14682;DHT22;7429;52.498;13.480;2023-02-16T17:37:57;9.40;99.90
14682;DHT22;7429;52.498;13.480;2023-02-16T17:41:01;9.40;99.90
14682;DHT22;7429;52.498;13.480;2023-02-16T17:44:06;9.40;99.90
14682;DHT22;7429;52.498;13.480;2023-02-16T17:47:15;9.30;99.90
14682;DHT22;7429;52.498;13.480;2023-02-16T17:50:20;9.40;99.90
14682;DHT22;7429;52.498;13.480;2023-02-16T17:53:24;9.40;99.90
14682;DHT22;7429;52.498;13.480;2023-02-16T17:56:31;9.30;99.90
14682;DHT22;7429;52.498;13.480;2023-02-16T17:59:34;9.30;99.90
14682;DHT22;7429;52.498;13.480;2023-02-16T18:02:39;9.30;99.90
14682;DHT22;7429;52.498;13.480;2023-02-16T18:05:42;9.20;99.90
14682;DHT22;7429;52.498;13.480;2023-02-16T18:08:46;9.20;99.90
14682;DHT22;7429;52.498;13.480;2023-02-16T18:11:49;9.30;99.90
14682;DHT22;7429;52.498;13.480;2023-02-16T18:14:52;9.20;99.90
14682;DHT22;7429;52.498;13.480;2023-02-16T18:17:57;9.20;99.90
14682;DHT22;7429;52.498;13.480;2023-02-16T18:21:01;9.30;99.90
14682;DHT22;7429;52.498;13.480;2023-02-16T18:24:05;9.30;99.90
14682;DHT22;7429;52.498;13.480;2023-02-16T18:27:09;9.30;99.90
14682;DHT22;7429;52.498;13.480;2023-02-16T18:30:14;9.30;99.90
14682;DHT22;7429;52.498;13.480;2023-02-16T18:33:19;9.30;99.90
14682;DHT22;7429;52.498;13.480;2023-02-16T18:36:25;9.40;99.90
14682;DHT22;7429;52.498;13.480;2023-02-16T18:39:28;9.40;99.90
14682;DHT22;7429;52.498;13.480;2023-02-16T18:42:31;9.40;99.90
14682;DHT22;7429;52.498;13.480;2023-02-16T18:45:35;9.40;99.90
14682;DHT22;7429;52.498;13.480;2023-02-16T18:48:40;9.40;99.90
14682;DHT22;7429;52.498;13.480;2023-02-16T18:51:44;9.50;99.90
14682;DHT22;7429;52.498;13.480;2023-02-16T18:54:47;9.50;99.90
14682;DHT22;7429;52.498;13.480;2023-02-16T18:57:50;9.50;99.90
14682;DHT22;7429;52.498;13.480;2023-02-16T19:00:53;9.50;99.90
14682;DHT22;7429;52.498;13.480;2023-02-16T19:03:58;9.40;99.90
14682;DHT22;7429;52.498;13.480;2023-02-16T19:07:02;9.40;99.90
14682;DHT22;7429;52.498;13.480;2023-02-16T19:10:08;9.40;99.90
14682;DHT22;7429;52.498;13.480;2023-02-16T19:13:12;9.40;99.90
14682;DHT22;7429;52.498;13.480;2023-02-16T19:16:16;9.30;99.90
14682;DHT22;7429;52.498;13.480;2023-02-16T19:19:21;9.30;99.90
14682;DHT22;7429;52.498;13.480;2023-02-16T19:22:24;9.40;99.90
14682;DHT22;7429;52.498;13.480;2023-02-16T19:25:27;9.30;99.90
14682;DHT22;7429;52.498;13.480;2023-02-16T19:28:30;9.30;99.90
14682;DHT22;7429;52.498;13.480;2023-02-16T19:31:33;9.30;99.90
14682;DHT22;7429;52.498;13.480;2023-02-16T19:34:38;9.30;99.90
14682;DHT22;7429;52.498;13.480;2023-02-16T19:37:41;9.40;99.90
14682;DHT22;7429;52.498;13.480;2023-02-16T19:40:44;9.30;99.90
14682;DHT22;7429;52.498;13.480;2023-02-16T19:43:48;9.30;99.90
14682;DHT22;7429;52.498;13.480;2023-02-16T19:46:51;9.30;99.90
14682;DHT22;7429;52.498;13.480;2023-02-16T19:49:56;9.30;99.90
14682;DHT22;7429;52.498;13.480;2023-02-16T19:52:59;9.30;99.90
14682;DHT22;7429;52.498;13.480;2023-02-16T19:56:03;9.30;99.90
14682;DHT22;7429;52.498;13.480;2023-02-16T19:59:07;9.30;99.90
14682;DHT22;7429;52.498;13.480;2023-02-16T20:02:11;9.30;99.90
14682;DHT22;7429;52.498;13.480;2023-02-16T20:05:17;9.30;99.90
14682;DHT22;7429;52.498;13.480;2023-02-16T20:08:20;9.20;99.90
14682;DHT22;7429;52.498;13.480;2023-02-16T20:11:25;9.20;99.90
14682;DHT22;7429;52.498;13.480;2023-02-16T20:14:29;9.20;99.90
14682;DHT22;7429;52.498;13.480;2023-02-16T20:17:32;9.20;99.90
14682;DHT22;7429;52.498;13.480;2023-02-16T20:20:37;9.20;99.90
14682;DHT22;7429;52.498;13.480;2023-02-16T20:23:40;9.20;99.90
14682;DHT22;7429;52.498;13.480;2023-02-16T20:26:45;9.20;99.90